Pas de vigilance météorologique particulière.    Il n'y a aucun avertissement

Visitez nos sites météorologiques autres:

Template documentation
and downloads

And another site



Rapports METAR proximité

   
EHVK - Volkel Rnlafb, Netherlands
Distance: SO 18 km
Mise à jour: 22-10-2021 04:55
Claires  
Claires  
   Vent: SO 20.4 km/h
Vent: SO 20.4 km/h
Température: 5°C
éolien: 1°C
Point de rosée: 3°C
Humidité: 87%
Baromètre: 1014 hPa
Nuageux: Claires
visibilité: More than 10 km
Détails des nuages: Claires
EHVK 220255Z AUTO 23011KT 200V260 9999 NCD 05/03 Q1014 BLU
EDLV - Niederrhein, Germany
Distance: SE 25 km
Mise à jour: 21-10-2021 23:50
PAS actuel
Claires  
Claires  
   Vent: Ouest 11.1 km/h
Vent: Ouest 11.1 km/h
Température: 7°C
éolien: 5°C
Point de rosée: 5°C
Humidité: 87%
Baromètre: 1014 hPa
visibilité: More than 10 km
Détails des nuages: Claires
EDLV 212150Z 26006KT CAVOK 07/05 Q1014
EHDL - Deelen Rnlafb, Netherlands
Distance: N 35 km
Mise à jour: 22-10-2021 04:55
Claires  
Claires  
   Vent: SSO 22.2 km/h
Vent: SSO 22.2 km/h
Température: 6°C
éolien: 2°C
Point de rosée: 4°C
Humidité: 87%
Baromètre: 1012 hPa
Nuageux: Claires
visibilité: More than 10 km
Détails des nuages: Claires
EHDL 220255Z AUTO 21012KT 160V290 9999 NCD 06/04 Q1012 BLU
EHEH - Eindhoven Rnlafb, Netherlands
Distance: SO 48 km
Mise à jour: 22-10-2021 04:55
Claires  
Claires  
   Vent: SSO 18.5 km/h
Vent: SSO 18.5 km/h
Température: 5°C
éolien: 1°C
Point de rosée: 3°C
Humidité: 87%
Baromètre: 1015 hPa
Nuageux: Claires
visibilité: More than 10 km
Détails des nuages: Claires
EHEH 220255Z AUTO 21010KT 9999 NCD 05/03 Q1015 BLU
EHGR - Gilze-Rijen Rnla, Netherlands
Distance: OSO 70 km
Mise à jour: 22-10-2021 04:55
Claires  
Claires  
   Vent: SSO 13 km/h
Vent: SSO 13 km/h
Température: 5°C
éolien: 2°C
Point de rosée: 3°C
Humidité: 87%
Baromètre: 1014 hPa
Nuageux: Claires
visibilité: More than 10 km
Détails des nuages: Claires
EHGR 220255Z AUTO 21007KT 190V250 9999 NCD 05/03 Q1014 BLU
EBBL - Kleine-Brogel(Ba, Belgium
Distance: SSO 71 km
Mise à jour: 22-10-2021 04:25
Claires  
Claires  
   Vent: SO 16.7 km/h
Vent: SO 16.7 km/h
Température: 5°C
éolien: 2°C
Point de rosée: 3°C
Humidité: 87%
Baromètre: 1015 hPa
Nuageux: Claires
visibilité: More than 10 km
Détails des nuages: Claires
EBBL 220225Z AUTO 22009KT 9999 NCD 05/03 Q1015 BLU

Script développé par  Saratoga-weather.org Adapté pour le modèle par  Weerstation Leuven